Time;durP1;ratioP1;P1;durP2;ratioP2;P2;SDS_P1;SDS_P2;PMS_P1;PMS_P2;Temp;Humidity;BMP_temperature;BMP_pressure;BME280_temperature;BME280_humidity;BME280_pressure;Samples;Min_cycle;Max_cycle;Signal;HPM_P1;HPM_P2
2023/01/11 06:28:05;;;;;;;;;;;;;;;8.51;60.71;97290.63;4246924;27;10184;-74
2023/01/11 06:30:08;;;;;;;;;;;;;;;8.78;60.15;97289.41;4244073;27;5704;-72
2023/01/11 06:32:11;;;;;;;;;;;;;;;9.01;59.76;97296.41;4225669;28;5920;-72
2023/01/11 06:34:14;;;;;;;;;;;;;;;9.18;59.46;97305.09;4236752;27;6513;-71
2023/01/11 06:36:17;;;;;;;;;;;;;;;9.30;59.33;97300.25;4244410;27;5714;-71
2023/01/11 06:38:22;;;;;;;;;;;;;;;9.43;59.04;97300.50;4232682;28;5872;-72
2023/01/11 06:40:25;;;;;;;;;;;;;;;9.50;59.06;97292.69;4238385;27;6836;-71
2023/01/11 06:42:27;;;;;;;;;;;;;;;9.56;58.91;97292.84;4249398;27;5589;-72
2023/01/11 06:44:31;;;;;;;;;;;;;;;9.63;58.77;97292.97;4234125;27;5604;-72
2023/01/11 06:46:34;;;;;;;;;;;;;;;9.70;58.86;97296.53;4239967;27;5679;-72
2023/01/11 06:48:37;;;;;;;;;;;;;;;9.76;58.90;97293.22;4231230;27;5596;-72
2023/01/11 06:50:40;;;;;;;;;;;;;;;9.80;58.50;97299.78;4239612;27;5738;-72
2023/01/11 06:52:43;;;;;;;;;;;;;;;9.85;58.81;97301.88;4230632;27;5623;-72
2023/01/11 06:54:45;;;;;;;;;;;;;;;9.86;58.77;97292.97;4240533;27;5608;-72
2023/01/11 06:56:48;;;;;;;;;;;;;;;9.93;58.68;97301.81;4239685;27;5616;-72
2023/01/11 06:58:51;;;;;;;;;;;;;;;9.96;58.36;97293.53;4241850;27;5597;-72
2023/01/11 07:00:57;;;;;;;;;;;;;;;9.98;58.48;97298.66;4236760;27;5620;-72
2023/01/11 07:03:03;;;;;;;;;;;;;;;10.00;58.44;97296.66;4215055;28;5615;-72
2023/01/11 07:05:06;;;;;;;;;;;;;;;10.02;58.05;97307.88;4227175;28;5612;-72
2023/01/11 07:07:09;;;;;;;;;;;;;;;10.02;58.14;97310.50;4242713;27;5665;-73
2023/01/11 07:09:12;;;;;;;;;;;;;;;10.02;57.93;97315.78;4240611;27;5688;-72
2023/01/11 07:11:15;;;;;;;;;;;;;;;10.01;58.31;97312.34;4239593;27;5631;-72
2023/01/11 07:13:18;;;;;;;;;;;;;;;10.03;58.23;97310.34;4233360;27;5589;-72
2023/01/11 07:15:22;;;;;;;;;;;;;;;10.06;58.18;97314.44;4240496;27;5597;-72
2023/01/11 07:17:26;;;;;;;;;;;;;;;10.08;58.04;97310.63;4242419;27;5608;-72
2023/01/11 07:19:29;;;;;;;;;;;;;;;10.11;57.69;97302.34;4246564;27;5691;-72
2023/01/11 07:21:32;;;;;;;;;;;;;;;10.14;57.94;97298.53;4248138;27;5704;-72
2023/01/11 07:23:34;;;;;;;;;;;;;;;10.17;57.55;97295.53;4231746;27;5628;-73
2023/01/11 07:25:37;;;;;;;;;;;;;;;10.19;57.44;97301.44;4239360;27;5692;-72
2023/01/11 07:27:40;;;;;;;;;;;;;;;10.16;57.44;97297.34;4240571;27;5603;-73
2023/01/11 07:29:43;;;;;;;;;;;;;;;10.17;57.38;97284.94;4228627;28;5606;-73
2023/01/11 07:31:46;;;;;;;;;;;;;;;10.20;57.67;97300.47;4229044;28;6287;-73
2023/01/11 07:33:50;;;;;;;;;;;;;;;10.22;57.41;97293.22;4237200;28;5601;-72
2023/01/11 07:35:54;;;;;;;;;;;;;;;10.24;57.44;97291.22;4236624;28;5594;-72
2023/01/11 07:37:57;;;;;;;;;;;;;;;10.27;57.22;97293.47;4229562;28;5746;-72
2023/01/11 07:40:00;;;;;;;;;;;;;;;10.28;57.05;97308.34;4230852;28;5631;-73
2023/01/11 07:44:23;;;;;;;;;;;;;;;10.31;56.94;97301.91;4216577;28;5781;-72
2023/01/11 07:46:26;;;;;;;;;;;;;;;10.33;57.04;97303.34;4218122;28;5814;-71
2023/01/11 07:48:30;;;;;;;;;;;;;;;10.36;56.82;97294.25;4217965;28;5632;-72
2023/01/11 07:50:34;;;;;;;;;;;;;;;10.36;56.65;97300.34;4219402;28;5604;-71
2023/01/11 07:52:37;;;;;;;;;;;;;;;10.35;56.56;97305.81;4221523;28;5683;-72
2023/01/11 07:54:40;;;;;;;;;;;;;;;10.35;56.27;97308.47;4219537;28;5904;-72
2023/01/11 07:56:42;;;;;;;;;;;;;;;10.37;56.61;97303.81;4219458;28;5714;-72
2023/01/11 07:58:45;;;;;;;;;;;;;;;10.36;56.64;97297.69;4220139;28;6294;-72
2023/01/11 08:00:48;;;;;;;;;;;;;;;10.37;56.43;97288.78;4220193;28;5631;-71
2023/01/11 08:02:52;;;;;;;;;;;;;;;10.36;56.41;97289.78;4223270;28;5676;-72
2023/01/11 08:04:58;;;;;;;;;;;;;;;10.36;56.40;97288.94;4220837;28;5818;-73
2023/01/11 08:07:02;;;;;;;;;;;;;;;10.33;56.57;97286.69;4217863;28;5699;-73
2023/01/11 08:09:05;;;;;;;;;;;;;;;10.33;56.13;97299.88;4215646;28;6305;-73
2023/01/11 08:16:03;;;;;;;;;;;;;;;10.38;56.02;97284.31;4165362;28;5771;-72
2023/01/11 08:18:07;;;;;;;;;;;;;;;10.37;56.20;97282.66;4157567;28;5707;-73
2023/01/11 08:20:11;;;;;;;;;;;;;;;10.36;56.42;97291.59;4158723;28;5720;-72
2023/01/11 08:22:16;;;;;;;;;;;;;;;10.37;56.07;97301.97;4159308;28;5688;-72
2023/01/11 08:24:20;;;;;;;;;;;;;;;10.39;56.31;97315.84;4172983;28;5261;-72
2023/01/11 08:26:23;;;;;;;;;;;;;;;10.37;56.06;97317.84;4163820;28;5818;-72
2023/01/11 08:28:26;;;;;;;;;;;;;;;10.39;56.05;97328.22;4167778;28;5825;-72
2023/01/11 08:30:30;;;;;;;;;;;;;;;10.41;56.10;97321.75;4165670;28;5818;-72
2023/01/11 08:32:33;;;;;;;;;;;;;;;10.44;55.82;97317.97;4162891;28;6089;-72
2023/01/11 08:34:35;;;;;;;;;;;;;;;10.43;55.89;97316.31;4165987;28;5771;-73
2023/01/11 08:36:38;;;;;;;;;;;;;;;10.43;55.85;97325.06;4166036;28;5762;-72
2023/01/11 08:38:43;;;;;;;;;;;;;;;10.46;55.69;97323.88;4165925;28;5767;-73
2023/01/11 08:40:47;;;;;;;;;;;;;;;10.41;55.68;97316.47;4165882;28;5722;-73
2023/01/11 08:42:54;;;;;;;;;;;;;;;10.41;55.94;97308.53;4164631;28;5759;-73
2023/01/11 08:44:57;;;;;;;;;;;;;;;10.41;55.62;97316.47;4165471;28;5751;-73
2023/01/11 08:47:00;;;;;;;;;;;;;;;10.40;56.01;97309.53;4182372;28;5824;-73
2023/01/11 08:49:10;;;;;;;;;;;;;;;10.40;55.59;97306.09;4208895;28;5660;-71
2023/01/11 08:51:13;;;;;;;;;;;;;;;10.43;55.91;97305.75;4212117;28;5810;-71
2023/01/11 08:53:16;;;;;;;;;;;;;;;10.43;55.90;97313.69;4212204;28;5901;-72
2023/01/11 08:55:20;;;;;;;;;;;;;;;10.43;55.65;97317.13;4216467;28;5842;-64
2023/01/11 08:57:23;;;;;;;;;;;;;;;10.47;55.34;97317.59;4212705;28;5664;-65
2023/01/11 08:59:28;;;;;;;;;;;;;;;10.47;55.50;97323.69;4204904;28;5615;-66
2023/01/11 09:01:32;;;;;;;;;;;;;;;10.48;55.80;97314.75;4218435;28;5775;-70
2023/01/11 09:03:35;;;;;;;;;;;;;;;10.49;55.45;97316.41;4210880;28;5924;-66
2023/01/11 09:05:38;;;;;;;;;;;;;;;10.49;55.39;97305.00;4211570;28;5716;-71
2023/01/11 09:07:41;;;;;;;;;;;;;;;10.49;55.53;97307.66;4218821;28;5672;-67
2023/01/11 09:09:46;;;;;;;;;;;;;;;10.50;55.50;97310.13;4201837;28;5793;-66
2023/01/11 09:11:53;;;;;;;;;;;;;;;10.53;55.30;97302.81;4202707;28;6067;-68
2023/01/11 09:13:59;;;;;;;;;;;;;;;10.54;55.32;97294.75;4216074;28;5660;-66
2023/01/11 09:16:02;;;;;;;;;;;;;;;10.56;55.17;97298.00;4204080;28;5775;-72
2023/01/11 09:18:06;;;;;;;;;;;;;;;10.58;55.11;97306.59;4205021;28;5670;-72
2023/01/11 09:20:12;;;;;;;;;;;;;;;10.58;55.19;97300.47;4201190;28;5682;-67
2023/01/11 09:22:15;;;;;;;;;;;;;;;10.57;55.16;97306.78;4209883;28;5697;-69
2023/01/11 09:24:18;;;;;;;;;;;;;;;10.58;55.29;97311.88;4211629;28;5697;-71
2023/01/11 09:26:21;;;;;;;;;;;;;;;10.62;55.11;97317.59;4204816;28;5932;-68
2023/01/11 09:28:25;;;;;;;;;;;;;;;10.63;55.12;97324.53;4218525;28;5754;-74
2023/01/11 09:30:28;;;;;;;;;;;;;;;10.65;54.94;97331.31;4218802;28;5620;-67
2023/01/11 09:32:31;;;;;;;;;;;;;;;10.68;55.24;97336.22;4232046;28;6549;-67
2023/01/11 09:34:34;;;;;;;;;;;;;;;10.67;55.08;97331.94;4228218;28;5616;-66
2023/01/11 09:36:38;;;;;;;;;;;;;;;10.72;54.87;97323.47;4200343;28;5651;-66
2023/01/11 09:38:42;;;;;;;;;;;;;;;10.74;54.66;97316.16;4218417;28;5176;-66
2023/01/11 09:40:54;;;;;;;;;;;;;;;10.74;54.79;97316.97;4225663;28;7675;-66
2023/01/11 09:43:00;;;;;;;;;;;;;;;10.74;54.52;97316.97;4202328;28;5809;-66
2023/01/11 09:45:13;;;;;;;;;;;;;;;10.74;54.66;97327.56;4226193;28;5601;-66
2023/01/11 09:47:22;;;;;;;;;;;;;;;10.70;54.39;97323.66;4229733;28;5660;-66
2023/01/11 09:49:31;;;;;;;;;;;;;;;10.71;54.67;97324.47;4232815;28;6302;-67
2023/01/11 09:51:38;;;;;;;;;;;;;;;10.72;54.21;97332.22;4235031;28;5624;-66
2023/01/11 09:53:48;;;;;;;;;;;;;;;10.74;54.03;97319.63;4235370;28;5589;-66
2023/01/11 09:55:52;;;;;;;;;;;;;;;10.77;54.32;97318.47;4226529;28;5699;-67
2023/01/11 09:58:05;;;;;;;;;;;;;;;10.77;54.35;97319.28;4233174;28;5594;-66
2023/01/11 10:00:22;;;;;;;;;;;;;;;10.75;53.83;97315.97;4222041;28;5604;-67
2023/01/11 10:02:41;;;;;;;;;;;;;;;10.78;53.95;97326.22;4220368;28;5617;-67
2023/01/11 10:04:57;;;;;;;;;;;;;;;10.81;53.89;97325.03;4227134;28;5692;-66
2023/01/11 10:07:18;;;;;;;;;;;;;;;10.82;54.06;97324.03;4224024;28;5751;-66
2023/01/11 10:09:33;;;;;;;;;;;;;;;10.83;53.82;97319.53;4218539;28;5762;-67
2023/01/11 10:12:07;;;;;;;;;;;;;;;10.83;54.00;97324.84;4220040;28;5632;-67
2023/01/11 10:14:41;;;;;;;;;;;;;;;10.86;53.83;97322.63;4220031;28;5628;-67
2023/01/11 10:17:15;;;;;;;;;;;;;;;10.88;53.75;97327.78;4225752;28;5620;-67
2023/01/11 10:19:46;;;;;;;;;;;;;;;10.88;53.93;97320.66;4226172;28;5605;-67
2023/01/11 10:21:54;;;;;;;;;;;;;;;10.88;53.65;97315.38;4219145;28;5608;-67
2023/01/11 10:24:01;;;;;;;;;;;;;;;10.90;53.75;97313.34;4235177;28;5605;-67
2023/01/11 10:26:12;;;;;;;;;;;;;;;10.91;53.40;97303.59;4231618;28;5687;-67
2023/01/11 10:28:22;;;;;;;;;;;;;;;10.93;53.60;97302.41;4226592;28;5596;-67
2023/01/11 10:30:39;;;;;;;;;;;;;;;10.93;53.31;97299.75;4218586;28;5612;-67
2023/01/11 10:33:04;;;;;;;;;;;;;;;10.93;53.34;97297.13;4226399;28;5099;-66
2023/01/11 10:35:28;;;;;;;;;;;;;;;10.95;53.64;97303.03;4221717;28;7683;-66
2023/01/11 10:37:48;;;;;;;;;;;;;;;10.96;53.38;97307.31;4234880;28;5864;-66
2023/01/11 10:40:17;;;;;;;;;;;;;;;10.96;53.47;97296.75;4219054;28;5624;-65
2023/01/11 10:42:22;;;;;;;;;;;;;;;11.01;53.49;97293.56;4221399;28;5627;-67
2023/01/11 10:44:33;;;;;;;;;;;;;;;11.01;53.41;97289.09;4218227;28;5612;-67
2023/01/11 10:46:42;;;;;;;;;;;;;;;10.99;53.32;97299.03;4225235;28;5620;-66
2023/01/11 10:48:46;;;;;;;;;;;;;;;11.02;53.39;97296.03;4225907;28;5604;-67
2023/01/11 10:50:57;;;;;;;;;;;;;;;11.03;53.70;97288.91;4215678;28;5596;-67
2023/01/11 10:53:10;;;;;;;;;;;;;;;11.03;53.41;97302.13;4217953;28;5632;-67
2023/01/11 10:55:16;;;;;;;;;;;;;;;11.02;53.49;97296.03;4226201;28;5620;-66
2023/01/11 10:57:33;;;;;;;;;;;;;;;11.04;53.64;97293.19;4226133;28;5718;-67
2023/01/11 10:59:57;;;;;;;;;;;;;;;11.05;53.62;97289.53;4218111;28;5639;-67
2023/01/11 11:02:12;;;;;;;;;;;;;;;11.05;53.48;97282.41;4217003;28;6408;-67
2023/01/11 11:04:30;;;;;;;;;;;;;;;11.08;53.62;97289.97;4220934;28;5080;-67
2023/01/11 11:06:44;;;;;;;;;;;;;;;11.08;53.67;97294.44;4236626;28;6310;-65
2023/01/11 11:08:53;;;;;;;;;;;;;;;11.07;53.26;97296.28;4230158;28;5696;-66
2023/01/11 11:11:01;;;;;;;;;;;;;;;11.04;53.31;97291.38;4229186;28;5693;-65
2023/01/11 11:13:13;;;;;;;;;;;;;;;11.04;53.41;97286.06;4225700;28;5702;-66
2023/01/11 11:15:22;;;;;;;;;;;;;;;11.08;53.50;97284.69;4225285;28;5684;-66
2023/01/11 11:17:30;;;;;;;;;;;;;;;11.08;53.27;97284.69;4222433;28;5597;-66
2023/01/11 11:19:34;;;;;;;;;;;;;;;11.05;53.37;97279.78;4227811;28;5617;-67
2023/01/11 11:21:39;;;;;;;;;;;;;;;11.04;53.58;97288.72;4228525;28;5609;-66
2023/01/11 11:23:42;;;;;;;;;;;;;;;11.04;53.75;97286.06;4210404;28;5722;-67
2023/01/11 11:25:51;;;;;;;;;;;;;;;11.06;53.55;97289.34;4219800;28;5083;-66
2023/01/11 11:27:58;;;;;;;;;;;;;;;11.10;53.68;97292.47;4230474;28;5593;-67
2023/01/11 11:30:00;;;;;;;;;;;;;;;11.11;53.78;97280.06;4236293;28;5696;-66
2023/01/11 11:32:03;;;;;;;;;;;;;;;11.12;53.68;97287.81;4236132;28;5126;-66
2023/01/11 11:34:08;;;;;;;;;;;;;;;11.14;53.93;97287.63;4232999;28;7687;-66
2023/01/11 11:36:16;;;;;;;;;;;;;;;11.13;53.75;97285.97;4233521;28;5612;-66
2023/01/11 11:38:22;;;;;;;;;;;;;;;11.12;53.70;97301.03;4233925;28;5601;-66
2023/01/11 11:40:31;;;;;;;;;;;;;;;11.11;54.07;97288.00;4234364;28;5811;-66
2023/01/11 11:42:34;;;;;;;;;;;;;;;11.09;54.16;97291.63;4233230;28;6901;-66
2023/01/11 11:44:37;;;;;;;;;;;;;;;11.09;53.97;97294.25;4232272;28;5691;-66
2023/01/11 11:46:40;;;;;;;;;;;;;;;11.10;54.08;97297.75;4226967;28;5594;-66
2023/01/11 11:48:44;;;;;;;;;;;;;;;11.07;54.07;97312.16;4213901;28;5667;-65
2023/01/11 11:50:48;;;;;;;;;;;;;;;11.08;53.88;97297.91;4230903;28;5592;-66
2023/01/11 11:52:54;;;;;;;;;;;;;;;11.08;54.12;97307.69;4233727;28;5621;-66
2023/01/11 11:54:58;;;;;;;;;;;;;;;11.07;54.26;97300.75;4231589;28;6290;-66
2023/01/11 11:57:14;;;;;;;;;;;;;;;11.08;54.15;97300.56;4228379;28;5704;-66
2023/01/11 11:59:19;;;;;;;;;;;;;;;11.07;54.44;97300.75;4232364;28;5601;-66
2023/01/11 12:01:26;;;;;;;;;;;;;;;11.07;54.58;97290.16;4229798;28;5703;-69
2023/01/11 12:03:32;;;;;;;;;;;;;;;11.08;54.60;97289.97;4226184;28;5612;-68
2023/01/11 12:05:35;;;;;;;;;;;;;;;11.08;54.60;97286.50;4231340;28;5104;-68
2023/01/11 12:07:45;;;;;;;;;;;;;;;11.06;54.86;97277.94;4228035;28;5664;-68
2023/01/11 12:10:02;;;;;;;;;;;;;;;11.08;54.91;97300.56;4227930;28;5683;-71
2023/01/11 12:12:05;;;;;;;;;;;;;;;11.08;54.85;97292.63;4233821;28;5795;-70
2023/01/11 12:14:17;;;;;;;;;;;;;;;11.04;54.80;97278.13;4231859;28;6489;-69
2023/01/11 12:16:22;;;;;;;;;;;;;;;11.06;55.16;97294.63;4228545;28;5577;-69
2023/01/11 12:18:27;;;;;;;;;;;;;;;11.04;54.97;97288.72;4225552;28;5703;-70
2023/01/11 12:20:39;;;;;;;;;;;;;;;11.04;55.23;97299.28;4232836;28;5589;-71
2023/01/11 12:22:43;;;;;;;;;;;;;;;11.06;55.49;97286.69;4235029;28;5707;-71
2023/01/11 12:24:47;;;;;;;;;;;;;;;11.05;55.25;97279.78;4232685;28;5589;-71
2023/01/11 12:27:02;;;;;;;;;;;;;;;11.03;55.65;97286.25;4231643;28;5597;-69
2023/01/11 12:29:28;;;;;;;;;;;;;;;10.99;55.45;97283.16;4231884;28;5605;-69
2023/01/11 12:31:43;;;;;;;;;;;;;;;11.00;55.65;97289.28;4234257;28;6405;-69
2023/01/11 12:33:49;;;;;;;;;;;;;;;10.99;55.50;97280.53;4228426;28;5612;-70
2023/01/11 12:35:58;;;;;;;;;;;;;;;10.94;56.04;97282.06;4222297;28;5104;-69
2023/01/11 12:38:23;;;;;;;;;;;;;;;10.89;55.91;97277.34;4222383;28;5601;-70
2023/01/11 12:40:35;;;;;;;;;;;;;;;10.93;56.04;97283.88;4219002;28;5616;-69
2023/01/11 12:42:58;;;;;;;;;;;;;;;10.94;55.90;97290.81;4218805;28;5623;-70
2023/01/11 12:45:14;;;;;;;;;;;;;;;10.95;56.26;97291.63;4219020;28;5731;-70
2023/01/11 12:47:47;;;;;;;;;;;;;;;10.96;56.13;97291.44;4226266;28;5726;-68
2023/01/11 12:49:55;;;;;;;;;;;;;;;10.95;56.24;97295.09;4185301;28;5604;-77
2023/01/11 12:52:23;;;;;;;;;;;;;;;10.89;56.31;97295.84;4229523;28;5761;-65
2023/01/11 12:54:51;;;;;;;;;;;;;;;10.84;56.50;97298.19;4225864;28;5703;-71
2023/01/11 12:57:12;;;;;;;;;;;;;;;10.79;56.48;97295.28;4224425;28;5610;-67
2023/01/11 12:59:35;;;;;;;;;;;;;;;10.78;56.45;97305.06;4231148;28;5766;-75
2023/01/11 13:01:42;;;;;;;;;;;;;;;10.76;56.90;97293.03;4224520;28;5915;-69
2023/01/11 13:04:13;;;;;;;;;;;;;;;10.79;56.67;97290.00;4225301;28;5748;-67
2023/01/11 13:06:22;;;;;;;;;;;;;;;10.81;57.12;97282.72;4229949;28;5615;-70
2023/01/11 13:08:42;;;;;;;;;;;;;;;10.82;56.81;97281.69;4233362;28;6370;-68
2023/01/11 13:10:55;;;;;;;;;;;;;;;10.85;56.73;97288.44;4227008;28;5593;-69
2023/01/11 13:13:05;;;;;;;;;;;;;;;10.83;57.14;97290.47;4225974;28;5680;-68
2023/01/11 13:15:40;;;;;;;;;;;;;;;10.84;56.85;97300.84;4233345;28;6452;-69
2023/01/11 13:17:49;;;;;;;;;;;;;;;10.84;57.45;97307.97;4228639;28;5800;-69
2023/01/11 13:20:03;;;;;;;;;;;;;;;10.87;57.13;97302.31;4227252;28;5593;-69
2023/01/11 13:22:13;;;;;;;;;;;;;;;10.85;56.92;97294.56;4230116;28;5601;-69
2023/01/11 13:24:24;;;;;;;;;;;;;;;10.84;57.06;97298.19;4227252;28;5624;-69
2023/01/11 13:26:30;;;;;;;;;;;;;;;10.83;56.98;97296.56;4228206;28;5809;-70
2023/01/11 13:28:39;;;;;;;;;;;;;;;10.79;57.29;97301.41;4228266;28;6425;-70
2023/01/11 13:30:46;;;;;;;;;;;;;;;10.79;57.42;97303.22;4226386;28;5613;-70
2023/01/11 13:32:54;;;;;;;;;;;;;;;10.79;57.44;97305.88;4220199;28;5619;-69
2023/01/11 13:35:04;;;;;;;;;;;;;;;10.77;57.45;97305.25;4234865;28;5820;-69
2023/01/11 13:37:15;;;;;;;;;;;;;;;10.75;57.57;97307.22;4228591;28;5632;-69
2023/01/11 13:39:22;;;;;;;;;;;;;;;10.74;57.40;97309.03;4229469;28;5620;-69
2023/01/11 13:41:30;;;;;;;;;;;;;;;10.75;57.69;97305.41;4224443;28;5693;-69
2023/01/11 13:43:40;;;;;;;;;;;;;;;10.76;57.75;97306.25;4234827;28;5609;-69
2023/01/11 13:45:49;;;;;;;;;;;;;;;10.77;58.11;97319.28;4217808;28;5690;-69
2023/01/11 13:47:57;;;;;;;;;;;;;;;10.78;58.18;97312.16;4219618;28;5609;-69
2023/01/11 13:50:03;;;;;;;;;;;;;;;10.78;58.04;97318.28;4226497;28;5612;-69
2023/01/11 13:52:12;;;;;;;;;;;;;;;10.81;58.17;97318.91;4226897;28;5672;-69
2023/01/11 13:54:20;;;;;;;;;;;;;;;10.83;58.01;97311.63;4227067;28;5668;-71
2023/01/11 13:56:30;;;;;;;;;;;;;;;10.81;58.12;97314.44;4211705;28;5651;-70
2023/01/11 13:58:40;;;;;;;;;;;;;;;10.80;58.42;97315.44;4226826;28;5597;-69
2023/01/11 14:00:53;;;;;;;;;;;;;;;10.83;58.31;97309.78;4225805;28;5853;-69
2023/01/11 14:03:03;;;;;;;;;;;;;;;10.84;58.24;97308.78;4225919;28;5620;-69
2023/01/11 14:05:13;;;;;;;;;;;;;;;10.83;58.27;97312.44;4234491;28;5839;-69
2023/01/11 14:07:27;;;;;;;;;;;;;;;10.87;58.57;97304.94;4225623;28;5612;-69
2023/01/11 14:09:54;;;;;;;;;;;;;;;10.84;58.20;97314.06;4229982;28;5621;-69
2023/01/11 14:12:05;;;;;;;;;;;;;;;10.86;58.67;97329.75;4227023;28;5664;-69
2023/01/11 14:14:44;;;;;;;;;;;;;;;10.86;58.56;97327.94;4232465;28;5691;-69
2023/01/11 14:17:13;;;;;;;;;;;;;;;10.87;58.30;97334.84;4228566;28;6674;-69
2023/01/11 14:19:22;;;;;;;;;;;;;;;10.75;58.49;97326.56;4223027;28;5632;-71
2023/01/11 14:21:32;;;;;;;;;;;;;;;10.64;58.91;97344.69;4227027;28;5593;-63
2023/01/11 14:23:45;;;;;;;;;;;;;;;10.58;58.89;97326.91;4228640;28;6298;-63
2023/01/11 14:26:29;;;;;;;;;;;;;;;10.60;59.27;97341.59;4225254;28;5629;-64
2023/01/11 14:28:51;;;;;;;;;;;;;;;10.59;59.09;97345.25;4164968;28;5689;-64
2023/01/11 14:31:22;;;;;;;;;;;;;;;10.63;59.13;97358.91;4165393;28;5753;-62
2023/01/11 14:33:56;;;;;;;;;;;;;;;10.60;58.95;97364.56;4165240;28;5691;-63
2023/01/11 14:36:21;;;;;;;;;;;;;;;10.62;59.01;97371.31;4165402;28;5692;-61
2023/01/11 14:38:44;;;;;;;;;;;;;;;10.63;59.32;97370.31;4164840;28;5218;-64
2023/01/11 14:41:10;;;;;;;;;;;;;;;10.63;59.45;97380.06;4161394;28;5809;-67
2023/01/11 14:43:40;;;;;;;;;;;;;;;10.64;59.29;97387.81;4168808;28;5684;-71
2023/01/11 14:46:08;;;;;;;;;;;;;;;10.65;59.04;97391.31;4159819;28;5684;-62
2023/01/11 14:48:26;;;;;;;;;;;;;;;10.64;59.30;97403.69;4172709;28;5688;-69
2023/01/11 14:50:44;;;;;;;;;;;;;;;10.59;59.55;97406.03;4164375;28;5958;-68
2023/01/11 14:52:50;;;;;;;;;;;;;;;10.61;59.42;97398.75;4176169;28;5665;-64
2023/01/11 14:54:55;;;;;;;;;;;;;;;10.64;59.28;97408.16;4168245;28;5775;-63
2023/01/11 14:57:00;;;;;;;;;;;;;;;10.65;59.39;97420.38;4162450;28;5966;-66
2023/01/11 14:59:05;;;;;;;;;;;;;;;10.66;59.23;97422.03;4168276;28;5688;-62
2023/01/11 15:01:10;;;;;;;;;;;;;;;10.63;59.56;97417.91;4164441;28;6552;-72
2023/01/11 15:03:34;;;;;;;;;;;;;;;10.63;59.61;97423.19;4165988;28;5841;-70
2023/01/11 15:05:46;;;;;;;;;;;;;;;10.61;59.70;97419.09;4231141;28;5758;-75
2023/01/11 15:07:50;;;;;;;;;;;;;;;10.61;60.00;97424.38;4231536;28;5859;-70
2023/01/11 15:09:54;;;;;;;;;;;;;;;10.63;59.84;97435.59;4221294;28;5676;-68
2023/01/11 15:12:11;;;;;;;;;;;;;;;10.65;59.94;97442.38;4231164;28;5771;-67
2023/01/11 15:14:26;;;;;;;;;;;;;;;10.66;59.89;97443.19;4230093;28;5601;-67
2023/01/11 15:18:53;;;;;;;;;;;;;;;10.63;60.15;97470.78;4221560;28;5612;-70
2023/01/11 15:21:03;;;;;;;;;;;;;;;10.63;60.03;97459.38;4225795;28;5707;-71
2023/01/11 15:23:06;;;;;;;;;;;;;;;10.60;59.81;97460.56;4224842;28;5608;-69
2023/01/11 15:25:21;;;;;;;;;;;;;;;10.58;60.42;97467.03;4221902;28;5751;-68
2023/01/11 15:27:27;;;;;;;;;;;;;;;10.57;59.89;97470.69;4223592;28;6302;-72
2023/01/11 15:29:32;;;;;;;;;;;;;;;10.58;60.12;97477.63;4226699;28;5698;-68
2023/01/11 15:31:38;;;;;;;;;;;;;;;10.53;60.18;97485.22;4207604;28;5802;-76
2023/01/11 15:33:46;;;;;;;;;;;;;;;10.53;60.38;97493.16;4234712;28;5102;-71
2023/01/11 15:36:02;;;;;;;;;;;;;;;10.53;60.61;97490.53;4230539;28;7759;-65
2023/01/11 15:38:12;;;;;;;;;;;;;;;10.55;60.36;97488.56;4230859;28;5620;-70
2023/01/11 15:40:20;;;;;;;;;;;;;;;10.56;60.56;97492.84;4227443;28;5617;-61
2023/01/11 15:43:01;;;;;;;;;;;;;;;10.58;60.35;97475.78;4229332;28;5600;-66
2023/01/11 15:45:36;;;;;;;;;;;;;;;10.57;60.46;97476.78;4216510;28;5801;-65
2023/01/11 15:48:07;;;;;;;;;;;;;;;10.46;60.75;97478.03;4190759;28;5667;-72
2023/01/11 15:50:45;;;;;;;;;;;;;;;10.48;60.71;97480.47;4230996;28;5880;-72
2023/01/11 15:53:33;;;;;;;;;;;;;;;10.49;60.80;97487.41;4226937;28;5648;-77
2023/01/11 15:56:21;;;;;;;;;;;;;;;10.49;60.69;97490.88;4229752;28;5632;-64
2023/01/11 15:58:59;;;;;;;;;;;;;;;10.46;60.77;97488.59;4225451;28;5819;-68
2023/01/11 16:01:20;;;;;;;;;;;;;;;10.45;60.89;97486.94;4202043;28;5707;-68
2023/01/11 16:03:37;;;;;;;;;;;;;;;10.46;61.03;97493.88;4220538;28;5743;-69
2023/01/11 16:05:44;;;;;;;;;;;;;;;10.49;60.93;97495.34;4224621;28;5815;-66
2023/01/11 16:07:56;;;;;;;;;;;;;;;10.50;60.72;97497.81;4226454;28;5633;-64
2023/01/11 16:10:14;;;;;;;;;;;;;;;10.50;61.06;97503.09;4227682;28;5688;-66
2023/01/11 16:12:41;;;;;;;;;;;;;;;10.46;60.76;97504.47;4209907;28;5608;-66
2023/01/11 16:15:07;;;;;;;;;;;;;;;10.48;61.15;97502.47;4228528;28;5692;-66
2023/01/11 16:17:12;;;;;;;;;;;;;;;10.49;60.73;97504.09;4225961;28;5924;-66
2023/01/11 16:19:20;;;;;;;;;;;;;;;10.49;60.80;97501.44;4233620;28;5794;-66
2023/01/11 16:21:32;;;;;;;;;;;;;;;10.49;60.82;97508.56;4228007;28;5608;-66
2023/01/11 16:23:35;;;;;;;;;;;;;;;10.46;61.13;97515.03;4220065;28;5808;-66
2023/01/11 16:25:41;;;;;;;;;;;;;;;10.44;61.07;97517.03;4224624;28;5629;-66
2023/01/11 16:27:52;;;;;;;;;;;;;;;10.46;61.15;97530.06;4224975;28;5102;-66
2023/01/11 16:29:55;;;;;;;;;;;;;;;10.46;60.93;97528.25;4224020;28;5620;-66
2023/01/11 16:32:00;;;;;;;;;;;;;;;10.45;60.95;97531.88;4210217;28;5714;-66
2023/01/11 16:34:06;;;;;;;;;;;;;;;10.42;61.18;97542.81;4211712;28;5601;-66
2023/01/11 16:36:12;;;;;;;;;;;;;;;10.40;60.95;97534.22;4209291;28;5694;-66
2023/01/11 16:38:19;;;;;;;;;;;;;;;10.38;61.05;97524.81;4214301;28;5703;-67
2023/01/11 16:40:25;;;;;;;;;;;;;;;10.37;61.10;97517.88;4214015;28;5716;-67
2023/01/11 16:42:34;;;;;;;;;;;;;;;10.35;61.23;97527.81;4210987;28;5818;-67
2023/01/11 16:44:41;;;;;;;;;;;;;;;10.37;61.46;97523.19;4224486;28;5707;-68
2023/01/11 16:47:06;;;;;;;;;;;;;;;10.35;61.52;97526.00;4209866;28;5862;-68
2023/01/11 16:49:10;;;;;;;;;;;;;;;10.39;61.72;97532.56;4209441;28;5643;-68
2023/01/11 16:51:15;;;;;;;;;;;;;;;10.41;61.44;97541.16;4203978;28;5981;-68
2023/01/11 16:53:20;;;;;;;;;;;;;;;10.42;61.31;97548.09;4207514;28;5750;-68
2023/01/11 16:55:28;;;;;;;;;;;;;;;10.44;61.59;97558.50;4212255;28;5620;-67
2023/01/11 16:57:38;;;;;;;;;;;;;;;10.46;61.77;97559.97;4209510;28;5706;-68
2023/01/11 16:59:41;;;;;;;;;;;;;;;10.47;61.52;97552.84;4187169;28;5793;-68
2023/01/11 17:01:51;;;;;;;;;;;;;;;10.48;61.53;97542.09;4213060;28;5926;-71
2023/01/11 17:03:55;;;;;;;;;;;;;;;10.47;61.85;97550.22;4205272;28;6486;-71
2023/01/11 17:06:18;;;;;;;;;;;;;;;10.48;61.65;97560.63;4213424;28;5774;-71
2023/01/11 17:08:26;;;;;;;;;;;;;;;10.49;61.41;97570.19;4210828;28;6314;-72
2023/01/11 17:10:30;;;;;;;;;;;;;;;10.50;61.72;97558.63;4206170;28;5731;-71
2023/01/11 17:12:34;;;;;;;;;;;;;;;10.50;61.92;97548.03;4205463;28;5706;-74
2023/01/11 17:15:00;;;;;;;;;;;;;;;10.54;61.65;97548.53;4210383;28;5323;-73
2023/01/11 17:17:06;;;;;;;;;;;;;;;10.55;61.86;97550.19;4209429;28;5732;-70
2023/01/11 17:19:15;;;;;;;;;;;;;;;10.56;62.00;97551.81;4207208;28;5619;-71
2023/01/11 17:21:20;;;;;;;;;;;;;;;10.55;61.77;97559.94;4209360;28;5632;-71
2023/01/11 17:23:23;;;;;;;;;;;;;;;10.54;61.65;97571.50;4209386;28;5627;-71
2023/01/11 17:25:28;;;;;;;;;;;;;;;10.53;62.12;97570.66;4218905;28;6358;-72
2023/01/11 17:27:53;;;;;;;;;;;;;;;10.55;62.02;97568.69;4220087;28;5659;-72
2023/01/11 17:29:58;;;;;;;;;;;;;;;10.56;61.76;97569.50;4226105;28;5810;-74
2023/01/11 17:32:05;;;;;;;;;;;;;;;10.59;61.65;97569.16;4225075;28;5739;-72
2023/01/11 17:34:23;;;;;;;;;;;;;;;10.58;61.78;97573.63;4223003;28;5665;-72
2023/01/11 17:36:29;;;;;;;;;;;;;;;10.61;62.17;97573.25;4222333;28;5687;-71
2023/01/11 17:38:32;;;;;;;;;;;;;;;10.62;62.00;97592.59;4222352;28;5751;-72
2023/01/11 17:40:38;;;;;;;;;;;;;;;10.62;61.95;97585.47;4224895;28;5608;-72
2023/01/11 17:45:16;;;;;;;;;;;;;;;10.63;62.09;97591.59;4229873;28;5766;-72
2023/01/11 17:47:22;;;;;;;;;;;;;;;10.59;62.20;97600.88;4226234;28;6488;-72
2023/01/11 17:49:25;;;;;;;;;;;;;;;10.53;62.06;97605.03;4225620;28;5834;-71
2023/01/11 17:51:31;;;;;;;;;;;;;;;10.54;62.20;97613.81;4226312;28;5748;-71
2023/01/11 17:53:36;;;;;;;;;;;;;;;10.53;62.46;97618.25;4221291;28;5687;-71
2023/01/11 17:55:49;;;;;;;;;;;;;;;10.54;62.23;97609.34;4217637;28;5723;-71
2023/01/11 17:58:15;;;;;;;;;;;;;;;10.57;62.17;97605.53;4221803;28;5586;-72
2023/01/11 18:00:28;;;;;;;;;;;;;;;10.59;62.14;97606.16;4207576;28;5640;-72
2023/01/11 18:02:30;;;;;;;;;;;;;;;10.57;62.31;97595.78;4220283;28;5711;-72
2023/01/11 18:04:35;;;;;;;;;;;;;;;10.54;62.16;97604.06;4221908;28;5840;-72
2023/01/11 18:06:41;;;;;;;;;;;;;;;10.54;62.60;97603.22;4226648;28;5614;-72